Time;durP1;ratioP1;P1;durP2;ratioP2;P2;SDS_P1;SDS_P2;PMS_P1;PMS_P2;Temp;Humidity;BMP_temperature;BMP_pressure;BME280_temperature;BME280_humidity;BME280_pressure;Samples;Min_cycle;Max_cycle;Signal;HPM_P1;HPM_P2
2024/01/09 00:01:43;;;;;;;19.02;8.55;;;-5.80;99.90;;;;;;5104213;28;20027;-41
2024/01/09 00:04:09;;;;;;;22.45;9.38;;;-5.80;99.90;;;;;;5101243;28;20726;-42
2024/01/09 00:06:35;;;;;;;21.45;8.15;;;-5.90;99.90;;;;;;5103243;28;20024;-41
2024/01/09 00:09:02;;;;;;;19.92;7.57;;;-5.90;99.90;;;;;;5102340;28;20027;-41
2024/01/09 00:11:28;;;;;;;16.13;7.97;;;-5.90;99.90;;;;;;5100901;28;20070;-41
2024/01/09 00:13:54;;;;;;;20.23;8.00;;;-6.00;99.90;;;;;;5102224;28;20055;-43
2024/01/09 00:16:20;;;;;;;20.35;8.52;;;-5.90;99.90;;;;;;5101088;28;20101;-41
2024/01/09 00:18:45;;;;;;;18.35;9.88;;;-5.90;99.90;;;;;;5102315;28;20042;-41
2024/01/09 00:21:11;;;;;;;16.90;8.45;;;-6.00;99.90;;;;;;5101115;28;20020;-41
2024/01/09 00:23:37;;;;;;;18.88;7.55;;;-6.10;99.90;;;;;;5103367;28;20028;-41
2024/01/09 00:26:02;;;;;;;20.33;8.63;;;-6.10;99.90;;;;;;5102454;28;20063;-41
2024/01/09 00:28:28;;;;;;;21.13;8.43;;;-6.10;99.90;;;;;;5102161;28;20104;-41
2024/01/09 00:30:54;;;;;;;16.90;7.60;;;-6.10;99.90;;;;;;5103605;28;20030;-40
2024/01/09 00:33:19;;;;;;;17.50;8.63;;;-6.10;99.90;;;;;;5101061;28;20485;-40
2024/01/09 00:35:45;;;;;;;17.88;7.75;;;-6.10;99.90;;;;;;5104035;28;20031;-40
2024/01/09 00:38:11;;;;;;;17.88;8.07;;;-6.10;99.90;;;;;;5101013;28;20061;-40
2024/01/09 00:40:36;;;;;;;19.73;8.50;;;-6.10;99.90;;;;;;5103218;28;20028;-40
2024/01/09 00:43:02;;;;;;;20.02;8.68;;;-6.10;99.90;;;;;;5102761;28;20065;-40
2024/01/09 00:45:28;;;;;;;19.30;7.72;;;-6.20;99.90;;;;;;5102032;28;20039;-40
2024/01/09 00:47:53;;;;;;;19.75;8.25;;;-6.20;99.90;;;;;;5103516;28;20077;-40
2024/01/09 00:50:19;;;;;;;23.48;8.70;;;-6.20;99.90;;;;;;5100509;28;20024;-40
2024/01/09 00:52:44;;;;;;;16.58;7.65;;;-6.20;99.90;;;;;;5104190;28;20476;-40
2024/01/09 00:55:10;;;;;;;17.98;7.78;;;-6.30;99.90;;;;;;5099789;28;20061;-41
2024/01/09 00:57:36;;;;;;;17.23;7.95;;;-6.20;99.90;;;;;;5101341;28;20024;-41
2024/01/09 01:00:02;;;;;;;22.80;8.45;;;-6.20;99.90;;;;;;5102540;28;20076;-42
2024/01/09 01:02:28;;;;;;;17.95;8.68;;;-6.20;99.90;;;;;;5102357;28;20496;-40
2024/01/09 01:04:53;;;;;;;19.23;8.43;;;-6.30;99.90;;;;;;5098866;28;20028;-41
2024/01/09 01:07:19;;;;;;;16.95;7.70;;;-6.30;99.90;;;;;;5100710;28;20024;-40
2024/01/09 01:09:45;;;;;;;19.42;8.13;;;-6.30;99.90;;;;;;5103888;28;20016;-40
2024/01/09 01:12:10;;;;;;;17.20;8.07;;;-6.30;99.90;;;;;;5101972;28;20031;-40
2024/01/09 01:14:36;;;;;;;20.48;9.07;;;-6.30;99.90;;;;;;5103535;28;20513;-40
2024/01/09 01:17:01;;;;;;;19.58;9.40;;;-6.30;99.90;;;;;;5097602;28;20038;-40
2024/01/09 01:19:27;;;;;;;17.55;7.97;;;-6.30;99.90;;;;;;5100715;28;20016;-40
2024/01/09 01:21:53;;;;;;;21.70;8.68;;;-6.30;99.90;;;;;;5104264;28;20098;-40
2024/01/09 01:24:19;;;;;;;17.35;7.65;;;-6.40;99.90;;;;;;5100696;28;20020;-41
2024/01/09 01:26:44;;;;;;;18.27;8.00;;;-6.40;99.90;;;;;;5102833;28;20403;-41
2024/01/09 01:29:10;;;;;;;20.52;8.68;;;-6.40;99.90;;;;;;5101758;28;20557;-40
2024/01/09 01:31:36;;;;;;;22.23;7.72;;;-6.40;99.90;;;;;;5103746;28;20019;-40
2024/01/09 01:34:02;;;;;;;21.55;8.30;;;-6.50;99.90;;;;;;5103806;28;20492;-40
2024/01/09 01:36:28;;;;;;;21.80;10.02;;;-6.50;99.90;;;;;;5102310;28;20380;-40
2024/01/09 01:38:53;;;;;;;19.33;8.55;;;-6.40;99.90;;;;;;5096038;28;20034;-40
2024/01/09 01:41:19;;;;;;;21.13;8.70;;;-6.50;99.90;;;;;;5094439;28;20038;-40
2024/01/09 01:43:44;;;;;;;18.05;7.40;;;-6.50;99.90;;;;;;5102561;28;20028;-40
2024/01/09 01:46:10;;;;;;;15.57;7.22;;;-6.50;99.90;;;;;;5102016;28;20049;-40
2024/01/09 01:48:36;;;;;;;18.17;8.48;;;-6.50;99.90;;;;;;5102889;28;20372;-41
2024/01/09 01:51:02;;;;;;;22.45;8.32;;;-6.40;99.90;;;;;;5103439;28;20099;-40
2024/01/09 01:53:30;;;;;;;18.25;8.45;;;-6.40;99.90;;;;;;5102114;28;20075;-40
2024/01/09 01:55:56;;;;;;;19.65;8.35;;;-6.40;99.90;;;;;;5101976;28;20028;-40
2024/01/09 01:58:24;;;;;;;20.23;7.43;;;-6.40;99.90;;;;;;5090868;28;20173;-41
2024/01/09 02:00:50;;;;;;;21.17;8.75;;;-6.40;99.90;;;;;;5093061;28;20015;-41
2024/01/09 02:03:16;;;;;;;18.02;7.85;;;-6.50;99.90;;;;;;5089213;28;20119;-41
2024/01/09 02:05:42;;;;;;;20.48;8.48;;;-6.40;99.90;;;;;;5090833;28;20168;-40
2024/01/09 02:08:09;;;;;;;20.92;8.05;;;-6.40;99.90;;;;;;5093332;28;20027;-41
2024/01/09 02:10:34;;;;;;;17.15;8.73;;;-6.50;99.90;;;;;;5092145;28;20377;-40
2024/01/09 02:13:00;;;;;;;15.75;7.70;;;-6.40;99.90;;;;;;5090711;28;20012;-40
2024/01/09 02:15:26;;;;;;;16.50;7.75;;;-6.40;99.90;;;;;;5091958;28;20032;-41
2024/01/09 02:17:51;;;;;;;17.20;7.70;;;-6.40;99.90;;;;;;5088862;28;20491;-40
2024/01/09 02:20:21;;;;;;;19.50;8.57;;;-6.40;99.90;;;;;;5089997;28;20024;-40
2024/01/09 02:22:46;;;;;;;15.32;7.93;;;-6.40;99.90;;;;;;5104354;28;20491;-40
2024/01/09 02:25:12;;;;;;;20.90;8.50;;;-6.40;99.90;;;;;;5102222;28;20089;-40
2024/01/09 02:28:04;;;;;;;20.45;8.02;;;-6.50;99.90;;;;;;5103818;28;20058;-40
2024/01/09 02:30:30;;;;;;;16.30;7.50;;;-6.50;99.90;;;;;;5100614;28;20490;-40
2024/01/09 02:32:57;;;;;;;19.50;8.88;;;-6.50;99.90;;;;;;5104406;27;20059;-40
2024/01/09 02:35:22;;;;;;;18.65;7.90;;;-6.50;99.90;;;;;;5101953;28;20377;-40
2024/01/09 02:37:48;;;;;;;20.33;7.97;;;-6.50;99.90;;;;;;5102907;28;20028;-40
2024/01/09 02:40:14;;;;;;;20.13;9.10;;;-6.60;99.90;;;;;;5102589;28;20031;-41
2024/01/09 02:42:39;;;;;;;17.08;8.20;;;-6.60;99.90;;;;;;5103904;28;20027;-47
2024/01/09 02:45:05;;;;;;;12.90;6.88;;;-6.70;99.90;;;;;;5102196;28;20122;-40
2024/01/09 02:47:30;;;;;;;15.15;7.80;;;-6.70;99.90;;;;;;5102511;28;20042;-41
2024/01/09 02:49:56;;;;;;;22.27;8.10;;;-6.80;99.90;;;;;;5104090;28;20499;-40
2024/01/09 02:52:22;;;;;;;23.02;8.02;;;-6.80;99.90;;;;;;5102037;28;20038;-39
2024/01/09 02:54:47;;;;;;;16.92;7.40;;;-6.80;99.90;;;;;;5104531;28;20089;-39
2024/01/09 02:57:14;;;;;;;17.88;8.18;;;-6.90;99.90;;;;;;5102724;28;20066;-40
2024/01/09 02:59:39;;;;;;;20.27;9.13;;;-6.80;99.90;;;;;;5103716;28;20020;-40
2024/01/09 03:02:07;;;;;;;21.58;8.90;;;-6.80;99.90;;;;;;5104219;28;20046;-39
2024/01/09 03:04:33;;;;;;;24.65;8.90;;;-6.80;99.90;;;;;;5103679;28;20024;-40
2024/01/09 03:06:58;;;;;;;22.60;8.85;;;-6.80;99.90;;;;;;5103570;28;20031;-39
2024/01/09 03:09:24;;;;;;;27.02;9.93;;;-6.80;99.90;;;;;;5101860;28;20020;-39
2024/01/09 03:11:50;;;;;;;19.88;8.57;;;-6.80;99.90;;;;;;5105024;28;20023;-39
2024/01/09 03:14:16;;;;;;;13.65;7.53;;;-6.80;99.90;;;;;;5101462;28;20031;-39
2024/01/09 03:16:41;;;;;;;21.02;9.23;;;-6.80;99.90;;;;;;5104503;28;20028;-40
2024/01/09 03:19:07;;;;;;;18.45;7.47;;;-6.90;99.90;;;;;;5106285;28;20051;-44
2024/01/09 03:21:32;;;;;;;18.15;8.52;;;-6.80;99.90;;;;;;5107610;28;20027;-39
2024/01/09 03:23:58;;;;;;;21.15;9.20;;;-6.80;99.90;;;;;;5107399;28;20480;-40
2024/01/09 03:26:24;;;;;;;16.73;6.68;;;-6.80;99.90;;;;;;5106484;28;20219;-39
2024/01/09 03:28:49;;;;;;;18.38;7.88;;;-6.80;99.90;;;;;;5108285;28;20032;-40
2024/01/09 03:31:22;;;;;;;16.60;7.53;;;-6.80;99.90;;;;;;5107464;28;20092;-39
2024/01/09 03:33:48;;;;;;;25.95;7.93;;;-6.80;99.90;;;;;;5097256;28;20027;-40
2024/01/09 03:36:14;;;;;;;22.60;8.10;;;-6.80;99.90;;;;;;5107409;28;20038;-40
2024/01/09 03:38:44;;;;;;;19.10;7.93;;;-6.80;99.90;;;;;;5108041;28;20035;-39
2024/01/09 03:41:10;;;;;;;;;;;-6.80;99.90;;;;;;5108719;28;20016;-39
2024/01/09 03:43:36;;;;;;;16.35;7.07;;;-6.80;99.90;;;;;;5107722;28;19908;-39
2024/01/09 03:46:01;;;;;;;18.52;8.50;;;-6.80;99.90;;;;;;5108368;28;20376;-39
2024/01/09 03:48:27;;;;;;;15.70;7.50;;;-6.80;99.90;;;;;;5106817;28;20024;-39
2024/01/09 03:50:53;;;;;;;20.80;7.05;;;-6.80;99.90;;;;;;5108915;28;20023;-39
2024/01/09 03:53:19;;;;;;;16.52;7.70;;;-6.80;99.90;;;;;;5107639;28;20065;-40
2024/01/09 03:55:45;;;;;;;18.73;9.52;;;-6.80;99.90;;;;;;5109244;28;20027;-39
2024/01/09 03:58:11;;;;;;;20.95;8.07;;;-6.80;99.90;;;;;;5107938;28;20019;-40
2024/01/09 04:00:38;;;;;;;18.33;7.97;;;-6.80;99.90;;;;;;5108059;28;20028;-39
2024/01/09 04:03:04;;;;;;;16.73;6.70;;;-6.80;99.90;;;;;;5107921;28;20076;-40
2024/01/09 04:05:30;;;;;;;19.65;8.20;;;-6.80;99.90;;;;;;5105802;28;20082;-39
2024/01/09 04:07:55;;;;;;;21.23;7.72;;;-6.80;99.90;;;;;;5109172;28;20028;-40
2024/01/09 04:10:21;;;;;;;18.75;8.07;;;-6.80;99.90;;;;;;5107124;28;20472;-40
2024/01/09 04:12:46;;;;;;;17.70;7.85;;;-6.80;99.90;;;;;;5109021;28;20551;-39
2024/01/09 04:15:12;;;;;;;15.20;7.78;;;-6.80;99.90;;;;;;5108061;28;20027;-39
2024/01/09 04:17:38;;;;;;;15.70;7.93;;;-6.90;99.90;;;;;;5108213;28;20503;-40
2024/01/09 04:20:04;;;;;;;16.88;8.15;;;-6.80;99.90;;;;;;5108842;28;20015;-39
2024/01/09 04:22:30;;;;;;;17.90;7.32;;;-6.80;99.90;;;;;;5107936;28;20016;-39
2024/01/09 04:24:56;;;;;;;21.10;8.15;;;-6.80;99.90;;;;;;5108711;28;20030;-39
2024/01/09 04:27:22;;;;;;;18.60;7.55;;;-6.80;99.90;;;;;;5100350;28;20020;-39
2024/01/09 04:29:48;;;;;;;17.73;7.40;;;-6.80;99.90;;;;;;5108115;28;20019;-39
2024/01/09 04:32:13;;;;;;;19.52;7.90;;;-6.90;99.90;;;;;;5108167;28;20015;-41
2024/01/09 04:34:39;;;;;;;18.85;8.20;;;-6.90;99.90;;;;;;5107141;28;20015;-40
2024/01/09 04:37:05;;;;;;;17.55;7.28;;;-6.90;99.90;;;;;;5108860;28;20035;-39
2024/01/09 04:39:31;;;;;;;15.75;8.05;;;-6.90;99.90;;;;;;5107245;28;20031;-39
2024/01/09 04:41:56;;;;;;;20.70;8.32;;;-6.90;99.90;;;;;;5109089;28;20020;-39
2024/01/09 04:44:22;;;;;;;14.27;6.97;;;-6.90;99.90;;;;;;5107848;28;20330;-39
2024/01/09 04:46:48;;;;;;;17.48;7.68;;;-6.90;99.90;;;;;;5109126;28;20023;-39
2024/01/09 04:49:14;;;;;;;16.52;8.20;;;-6.90;99.90;;;;;;5108011;28;20034;-39
2024/01/09 04:51:41;;;;;;;21.33;8.68;;;-6.90;99.90;;;;;;5108426;28;20016;-39
2024/01/09 04:54:06;;;;;;;15.68;7.22;;;-6.90;99.90;;;;;;5109166;28;20022;-39
2024/01/09 04:56:32;;;;;;;22.83;8.40;;;-6.90;99.90;;;;;;5107655;28;20020;-41
2024/01/09 04:58:58;;;;;;;18.02;8.15;;;-6.90;99.90;;;;;;5108606;28;20051;-39
2024/01/09 05:01:23;;;;;;;19.42;7.72;;;-6.90;99.90;;;;;;5100822;28;20102;-40
2024/01/09 05:03:50;;;;;;;22.63;8.60;;;-7.00;99.90;;;;;;5108880;28;20553;-39
2024/01/09 05:06:19;;;;;;;18.23;8.20;;;-7.10;99.90;;;;;;5107865;28;20035;-39
2024/01/09 05:08:45;;;;;;;18.42;8.45;;;-7.10;99.90;;;;;;5094659;28;20080;-39
2024/01/09 05:11:11;;;;;;;23.63;8.40;;;-7.00;99.90;;;;;;5107786;28;20020;-39
2024/01/09 05:13:37;;;;;;;16.40;8.27;;;-7.00;99.90;;;;;;5108382;28;20027;-39
2024/01/09 05:16:04;;;;;;;14.88;7.70;;;-7.00;99.90;;;;;;5109294;28;20020;-39
2024/01/09 05:18:30;;;;;;;19.63;8.50;;;-7.10;99.90;;;;;;5107570;28;20051;-39
2024/01/09 05:20:56;;;;;;;17.42;8.07;;;-7.00;99.90;;;;;;5107737;28;20027;-39
2024/01/09 05:23:21;;;;;;;22.65;9.77;;;-7.10;99.90;;;;;;5108022;28;20436;-40
2024/01/09 05:25:47;;;;;;;19.50;9.00;;;-7.00;99.90;;;;;;5108837;28;20095;-39
2024/01/09 05:28:13;;;;;;;18.05;7.70;;;-7.10;99.90;;;;;;5108468;28;20023;-39
2024/01/09 05:30:39;;;;;;;19.40;9.00;;;-7.10;99.90;;;;;;5108110;28;20012;-39
2024/01/09 05:33:05;;;;;;;17.05;8.45;;;-7.10;99.90;;;;;;5109071;28;20279;-39
2024/01/09 05:35:30;;;;;;;19.63;8.20;;;-7.10;99.90;;;;;;5108319;28;20485;-39
2024/01/09 05:37:56;;;;;;;18.17;7.95;;;-7.10;99.90;;;;;;5109139;28;20227;-39
2024/01/09 05:40:22;;;;;;;18.92;9.40;;;-7.10;99.90;;;;;;5106659;28;20524;-39
2024/01/09 05:42:47;;;;;;;20.08;7.57;;;-7.10;99.90;;;;;;5109149;27;20542;-39
2024/01/09 05:45:14;;;;;;;21.92;9.60;;;-7.20;99.90;;;;;;5107826;28;20028;-39
2024/01/09 05:47:41;;;;;;;19.73;9.38;;;-7.20;99.90;;;;;;5108863;28;20097;-39
2024/01/09 05:50:08;;;;;;;19.95;8.25;;;-7.20;99.90;;;;;;5108626;28;20032;-39
2024/01/09 05:52:38;;;;;;;21.25;9.27;;;-7.20;99.90;;;;;;5108534;28;20474;-40
2024/01/09 05:55:04;;;;;;;20.08;7.95;;;-7.20;99.90;;;;;;5109335;28;20111;-39
2024/01/09 05:57:30;;;;;;;18.30;8.88;;;-7.30;99.90;;;;;;5108672;28;20472;-40
2024/01/09 05:59:55;;;;;;;19.15;8.60;;;-7.30;99.90;;;;;;5108958;28;20185;-40
2024/01/09 06:02:22;;;;;;;18.80;7.97;;;-7.30;99.90;;;;;;5109115;28;20430;-39
2024/01/09 06:04:47;;;;;;;20.98;8.30;;;-7.30;99.90;;;;;;5108795;28;20061;-40
2024/01/09 06:07:15;;;;;;;22.85;10.00;;;-7.30;99.90;;;;;;5107650;28;20019;-39
2024/01/09 06:09:41;;;;;;;21.15;8.68;;;-7.30;99.90;;;;;;5107059;28;20020;-40
2024/01/09 06:12:06;;;;;;;24.15;8.90;;;-7.30;99.90;;;;;;5109442;28;20023;-40
2024/01/09 06:14:32;;;;;;;19.63;8.80;;;-7.20;99.90;;;;;;5108918;28;20080;-40
2024/01/09 06:16:58;;;;;;;21.60;9.13;;;-7.20;99.90;;;;;;5109164;28;20090;-40
2024/01/09 06:19:23;;;;;;;20.60;8.55;;;-7.30;99.90;;;;;;5108556;28;20027;-40
2024/01/09 06:21:49;;;;;;;20.73;9.77;;;-7.30;99.90;;;;;;5109303;28;20020;-40
2024/01/09 06:24:15;;;;;;;22.02;9.65;;;-7.30;99.90;;;;;;5108835;28;20027;-39
2024/01/09 06:26:40;;;;;;;25.52;9.63;;;-7.30;99.90;;;;;;5109047;28;20068;-40
2024/01/09 06:29:06;;;;;;;26.33;9.25;;;-7.30;99.90;;;;;;5109341;28;20019;-39
2024/01/09 06:31:32;;;;;;;19.00;8.70;;;-7.30;99.90;;;;;;5098991;28;20015;-41
2024/01/09 06:33:57;;;;;;;22.80;10.00;;;-7.30;99.90;;;;;;5109378;28;20165;-41
2024/01/09 06:36:23;;;;;;;24.13;9.25;;;-7.30;99.90;;;;;;5108976;28;20520;-40
2024/01/09 06:38:49;;;;;;;22.95;9.55;;;-7.30;99.90;;;;;;5098699;28;20032;-40
2024/01/09 06:41:14;;;;;;;22.00;9.68;;;-7.30;99.90;;;;;;5088254;28;20497;-40
2024/01/09 06:43:40;;;;;;;24.98;9.73;;;-7.40;99.90;;;;;;5087816;28;20338;-39
2024/01/09 06:46:06;;;;;;;20.10;9.02;;;-7.30;99.90;;;;;;5088382;28;20031;-41
2024/01/09 06:48:32;;;;;;;23.38;10.48;;;-7.30;99.90;;;;;;5087703;28;20481;-40
2024/01/09 06:50:57;;;;;;;21.00;8.75;;;-7.30;99.90;;;;;;5088430;28;20103;-42
2024/01/09 06:53:24;;;;;;;20.80;8.55;;;-7.30;99.90;;;;;;5087540;28;20028;-41
2024/01/09 06:55:49;;;;;;;21.83;8.70;;;-7.30;99.90;;;;;;5088263;28;20493;-41
2024/01/09 06:58:16;;;;;;;26.02;10.80;;;-7.30;99.90;;;;;;5088354;28;20020;-40
2024/01/09 07:00:43;;;;;;;23.13;8.90;;;-7.30;99.90;;;;;;5086755;28;20026;-42
2024/01/09 07:03:09;;;;;;;20.92;9.57;;;-7.30;99.90;;;;;;5088205;28;20078;-41
2024/01/09 07:05:35;;;;;;;19.00;8.75;;;-7.40;99.90;;;;;;5088430;28;20020;-43
2024/01/09 07:08:00;;;;;;;22.98;10.52;;;-7.40;99.90;;;;;;5088233;28;20111;-41
2024/01/09 07:10:26;;;;;;;21.02;9.63;;;-7.40;99.90;;;;;;5087814;28;20024;-40
2024/01/09 07:12:51;;;;;;;20.88;9.20;;;-7.40;99.90;;;;;;5088109;28;20177;-41
2024/01/09 07:15:17;;;;;;;22.95;10.90;;;-7.40;99.90;;;;;;5087952;28;20047;-40
2024/01/09 07:17:44;;;;;;;25.30;9.68;;;-7.40;99.90;;;;;;5087922;28;20088;-41
2024/01/09 07:20:10;;;;;;;24.98;11.00;;;-7.40;99.90;;;;;;5087993;28;20473;-41
2024/01/09 07:22:36;;;;;;;25.27;9.48;;;-7.40;99.90;;;;;;5088791;28;20445;-40
2024/01/09 07:25:03;;;;;;;26.10;9.98;;;-7.40;99.90;;;;;;5088420;28;20024;-40
2024/01/09 07:27:28;;;;;;;24.55;10.85;;;-7.40;99.90;;;;;;5088661;28;20023;-39
2024/01/09 07:29:54;;;;;;;20.45;9.60;;;-7.40;99.90;;;;;;5088037;28;20412;-39
2024/01/09 07:32:21;;;;;;;23.60;10.30;;;-7.40;99.90;;;;;;5088885;28;20032;-40
2024/01/09 07:34:47;;;;;;;28.60;10.23;;;-7.40;99.90;;;;;;5088510;28;20035;-40
2024/01/09 07:37:13;;;;;;;25.73;12.10;;;-7.30;99.90;;;;;;5087295;28;20020;-39
2024/01/09 07:39:39;;;;;;;21.60;10.25;;;-7.40;99.90;;;;;;5088936;28;20039;-39
2024/01/09 07:42:05;;;;;;;22.15;10.30;;;-7.30;99.90;;;;;;5089220;28;20377;-39
2024/01/09 07:44:31;;;;;;;25.00;10.35;;;-7.30;99.90;;;;;;5089019;28;20404;-40
2024/01/09 07:46:56;;;;;;;23.52;10.18;;;-7.30;99.90;;;;;;5094833;28;20103;-39
2024/01/09 07:49:22;;;;;;;32.80;11.50;;;-7.30;99.90;;;;;;5086700;28;20047;-41
2024/01/09 07:51:49;;;;;;;20.02;9.60;;;-7.30;99.90;;;;;;5086478;28;20111;-41
2024/01/09 07:54:14;;;;;;;25.80;11.65;;;-7.30;99.90;;;;;;5087573;28;20028;-40
2024/01/09 07:56:41;;;;;;;27.25;11.05;;;-7.40;99.90;;;;;;5089071;28;20031;-40
2024/01/09 07:59:06;;;;;;;27.27;11.18;;;-7.40;99.90;;;;;;5087791;28;20110;-41
2024/01/09 08:01:34;;;;;;;25.70;11.35;;;-7.40;99.90;;;;;;5089132;28;20095;-42
2024/01/09 08:04:01;;;;;;;21.52;9.50;;;-7.30;99.90;;;;;;5088570;28;20023;-40
2024/01/09 08:06:26;;;;;;;23.08;10.40;;;-7.30;99.90;;;;;;5094078;28;20449;-40
2024/01/09 08:08:52;;;;;;;30.88;10.75;;;-7.30;99.90;;;;;;5092861;28;20019;-40
2024/01/09 08:11:18;;;;;;;24.60;10.60;;;-7.30;99.90;;;;;;5092670;28;20288;-43
2024/01/09 08:13:43;;;;;;;26.50;10.40;;;-7.20;99.90;;;;;;5092869;28;20034;-44
2024/01/09 08:16:09;;;;;;;24.05;11.68;;;-7.30;99.90;;;;;;5091657;28;20423;-44
2024/01/09 08:18:36;;;;;;;22.98;11.18;;;-7.30;99.90;;;;;;5089601;28;20019;-43
2024/01/09 08:21:02;;;;;;;22.25;10.52;;;-7.30;99.90;;;;;;5090122;28;20012;-42
2024/01/09 08:23:28;;;;;;;23.35;10.52;;;-7.20;99.90;;;;;;5089891;28;20103;-43
2024/01/09 08:25:53;;;;;;;25.70;11.68;;;-7.20;99.90;;;;;;5088503;28;20389;-42
2024/01/09 08:28:19;;;;;;;25.33;10.65;;;-7.30;99.90;;;;;;5089503;28;20017;-43
2024/01/09 08:30:45;;;;;;;21.25;9.68;;;-7.20;99.90;;;;;;5092691;28;20075;-44
2024/01/09 08:33:11;;;;;;;31.50;11.07;;;-7.20;99.90;;;;;;5074056;28;20098;-42
2024/01/09 08:35:36;;;;;;;23.85;10.43;;;-7.10;99.90;;;;;;5092936;28;20493;-42
2024/01/09 08:38:03;;;;;;;30.30;11.13;;;-7.10;99.90;;;;;;5092563;28;20350;-42
2024/01/09 08:40:29;;;;;;;23.85;10.70;;;-7.10;99.90;;;;;;5093557;28;20046;-43
2024/01/09 08:42:55;;;;;;;19.17;9.23;;;-7.00;99.90;;;;;;5092505;28;20020;-43
2024/01/09 08:45:21;;;;;;;24.35;10.30;;;-7.00;99.90;;;;;;5092835;28;20582;-42
2024/01/09 08:47:47;;;;;;;22.02;10.27;;;-7.00;99.90;;;;;;5093219;27;20431;-44
2024/01/09 08:50:13;;;;;;;25.35;10.45;;;-6.90;99.90;;;;;;5092602;28;20095;-42
2024/01/09 08:52:38;;;;;;;20.60;10.02;;;-7.00;99.90;;;;;;5094163;28;20090;-43
2024/01/09 08:55:04;;;;;;;25.10;9.45;;;-6.90;99.90;;;;;;5092665;28;20028;-43
2024/01/09 08:57:30;;;;;;;20.45;10.45;;;-6.80;99.90;;;;;;5094145;28;20040;-42
2024/01/09 08:59:57;;;;;;;20.80;9.45;;;-6.80;99.90;;;;;;5092795;28;20023;-43
2024/01/09 09:02:24;;;;;;;23.80;11.43;;;-6.80;99.90;;;;;;5093858;28;20473;-47
2024/01/09 09:04:50;;;;;;;26.10;10.18;;;-6.70;99.90;;;;;;5093699;28;20020;-43
2024/01/09 09:07:18;;;;;;;21.70;10.93;;;-6.70;99.90;;;;;;5093033;28;20107;-42
2024/01/09 09:09:44;;;;;;;23.77;11.32;;;-6.70;99.90;;;;;;5091150;28;20020;-42
2024/01/09 09:12:10;;;;;;;24.65;10.48;;;-6.60;99.90;;;;;;5092674;28;20119;-42
2024/01/09 09:14:36;;;;;;;24.95;11.52;;;-6.60;99.90;;;;;;5094160;28;20309;-43
2024/01/09 09:17:01;;;;;;;28.55;10.25;;;-6.50;99.90;;;;;;5092405;28;20039;-42
2024/01/09 09:19:27;;;;;;;25.40;10.77;;;-6.50;99.90;;;;;;5093877;28;20047;-42
2024/01/09 09:21:53;;;;;;;26.02;11.85;;;-6.50;99.90;;;;;;5093480;28;20019;-42
2024/01/09 09:24:19;;;;;;;26.73;10.52;;;-6.40;99.90;;;;;;5092998;28;20025;-43
2024/01/09 09:26:45;;;;;;;27.55;11.30;;;-6.40;99.90;;;;;;5093944;28;20027;-42
2024/01/09 09:29:10;;;;;;;31.02;12.23;;;-6.40;99.90;;;;;;5090969;28;20046;-42
2024/01/09 09:31:36;;;;;;;28.83;11.48;;;-6.40;99.90;;;;;;5094375;28;20118;-42
2024/01/09 09:34:02;;;;;;;23.27;11.02;;;-6.40;99.90;;;;;;5091748;28;20028;-41
2024/01/09 09:36:27;;;;;;;25.80;10.68;;;-6.40;99.90;;;;;;5094434;28;20020;-43
2024/01/09 09:38:53;;;;;;;25.23;10.57;;;-6.30;99.90;;;;;;5092586;28;20020;-43
2024/01/09 09:41:20;;;;;;;25.38;11.10;;;-6.20;99.90;;;;;;5092962;28;20478;-43
2024/01/09 09:43:55;;;;;;;20.83;10.88;;;-6.10;99.90;;;;;;5094058;28;20077;-44
2024/01/09 09:46:29;;;;;;;28.98;11.13;;;-6.00;99.90;;;;;;5092974;28;20507;-42
2024/01/09 09:48:55;;;;;;;29.35;12.15;;;-6.00;99.90;;;;;;5092441;28;20098;-42
2024/01/09 09:51:22;;;;;;;33.28;12.23;;;-6.00;99.90;;;;;;5093657;28;20024;-45
2024/01/09 09:53:48;;;;;;;22.80;10.40;;;-5.90;99.90;;;;;;5092931;28;20031;-44
2024/01/09 09:56:14;;;;;;;24.38;10.75;;;-5.90;99.90;;;;;;5091311;28;20016;-44
2024/01/09 09:58:40;;;;;;;23.60;9.95;;;-5.90;99.90;;;;;;5094427;28;20023;-42
2024/01/09 10:01:11;;;;;;;26.40;9.85;;;-5.80;99.90;;;;;;5086174;28;20035;-44
2024/01/09 10:04:00;;;;;;;24.52;9.70;;;-5.70;99.90;;;;;;5087949;28;20096;-42
2024/01/09 10:06:29;;;;;;;26.50;11.35;;;-5.70;99.90;;;;;;5087644;28;20032;-43
2024/01/09 10:08:56;;;;;;;25.90;10.98;;;-5.70;99.90;;;;;;5087694;28;20021;-44
2024/01/09 10:11:22;;;;;;;28.58;11.15;;;-5.60;99.90;;;;;;5087942;28;20469;-43
2024/01/09 10:13:48;;;;;;;23.65;11.32;;;-5.60;99.90;;;;;;5087690;28;20047;-43
2024/01/09 10:16:14;;;;;;;22.25;10.18;;;-5.60;99.90;;;;;;5088258;28;20061;-42
2024/01/09 10:18:40;;;;;;;22.83;10.43;;;-5.50;99.90;;;;;;5087363;28;20015;-43
2024/01/09 10:21:07;;;;;;;30.48;11.77;;;-5.40;99.90;;;;;;5088405;28;20023;-43
2024/01/09 10:23:38;;;;;;;25.08;10.57;;;-5.40;99.90;;;;;;5089123;28;20023;-43
2024/01/09 10:26:11;;;;;;;26.63;12.88;;;-5.30;99.90;;;;;;5090670;28;20030;-42
2024/01/09 10:28:38;;;;;;;27.20;10.88;;;-5.30;99.90;;;;;;5087853;28;20028;-44
2024/01/09 10:31:06;;;;;;;30.52;11.35;;;-5.20;99.90;;;;;;5092086;28;20042;-43
2024/01/09 10:33:32;;;;;;;25.70;9.77;;;-5.00;99.90;;;;;;5087547;28;20016;-43
2024/01/09 10:35:58;;;;;;;20.40;9.05;;;-4.90;99.90;;;;;;5088262;28;20525;-44
2024/01/09 10:38:27;;;;;;;20.17;8.85;;;-4.70;99.90;;;;;;5090546;28;20207;-43
2024/01/09 10:40:56;;;;;;;24.15;10.38;;;-4.60;99.90;;;;;;5090145;28;20031;-44
2024/01/09 10:43:25;;;;;;;19.67;9.65;;;-4.40;99.90;;;;;;5100099;28;20023;-42
2024/01/09 10:45:52;;;;;;;25.45;9.48;;;-3.60;99.90;;;;;;5098944;28;20089;-43
2024/01/09 10:48:21;;;;;;;21.17;9.80;;;-2.00;99.90;;;;;;5095855;28;20012;-45
2024/01/09 10:50:50;;;;;;;24.67;11.75;;;-0.20;99.90;;;;;;5091289;28;20500;-44
2024/01/09 10:53:16;;;;;;;16.27;9.45;;;1.30;97.40;;;;;;5094077;28;20044;-45
2024/01/09 10:55:43;;;;;;;17.45;10.63;;;3.00;93.80;;;;;;5095616;28;20111;-45
2024/01/09 10:58:10;;;;;;;22.35;11.13;;;4.20;88.00;;;;;;5090675;28;20028;-45
2024/01/09 11:00:37;;;;;;;15.02;8.88;;;4.90;83.60;;;;;;5094290;28;20130;-45
2024/01/09 11:03:03;;;;;;;18.67;10.80;;;5.30;82.10;;;;;;5087088;28;20050;-46
2024/01/09 11:05:29;;;;;;;16.02;10.10;;;6.10;77.20;;;;;;5091154;28;20127;-45
2024/01/09 11:07:56;;;;;;;16.20;9.38;;;6.50;74.40;;;;;;5091273;28;20485;-45
2024/01/09 11:10:22;;;;;;;14.23;9.07;;;6.80;74.60;;;;;;5093435;28;20115;-45
2024/01/09 11:12:52;;;;;;;14.55;9.77;;;7.10;73.30;;;;;;5091386;28;20013;-45
2024/01/09 11:15:26;;;;;;;14.45;9.70;;;8.20;70.00;;;;;;5088893;28;20485;-45
2024/01/09 11:17:58;;;;;;;15.80;9.57;;;8.60;66.20;;;;;;5084161;28;20086;-45
2024/01/09 11:20:23;;;;;;;16.58;9.60;;;8.40;65.70;;;;;;5091105;28;20119;-46
2024/01/09 11:22:49;;;;;;;15.30;9.88;;;8.20;67.20;;;;;;5090092;28;20038;-45
2024/01/09 11:25:21;;;;;;;14.65;10.25;;;8.30;65.00;;;;;;5092816;28;20072;-47
2024/01/09 11:27:49;;;;;;;13.77;8.77;;;7.80;64.40;;;;;;5089386;28;20012;-45
2024/01/09 11:30:17;;;;;;;13.20;8.85;;;7.40;66.70;;;;;;5093013;28;20436;-44
2024/01/09 11:32:45;;;;;;;13.45;9.02;;;7.60;65.80;;;;;;5090363;28;20023;-46
2024/01/09 11:35:14;;;;;;;13.80;8.65;;;6.90;66.70;;;;;;5092999;28;20035;-44
2024/01/09 11:37:43;;;;;;;15.77;8.88;;;5.80;69.20;;;;;;5088306;28;20028;-45
2024/01/09 11:40:10;;;;;;;13.98;8.65;;;5.00;69.30;;;;;;5087592;28;20032;-44
2024/01/09 11:42:44;;;;;;;15.30;10.20;;;4.30;71.40;;;;;;5097785;28;20024;-43
2024/01/09 11:45:12;;;;;;;18.08;11.38;;;3.10;73.50;;;;;;5094035;28;20052;-43
2024/01/09 11:47:41;;;;;;;17.58;10.30;;;2.10;74.80;;;;;;5098737;28;20274;-45
2024/01/09 11:50:08;;;;;;;17.67;9.50;;;1.40;79.00;;;;;;5092206;28;20024;-44
2024/01/09 11:52:35;;;;;;;16.77;9.52;;;0.90;79.90;;;;;;5097434;28;20050;-43
2024/01/09 11:55:03;;;;;;;18.33;9.30;;;0.40;81.00;;;;;;5092040;28;20378;-45
2024/01/09 11:57:29;;;;;;;15.98;9.95;;;-0.10;83.40;;;;;;5094452;28;20419;-42
2024/01/09 11:59:55;;;;;;;18.73;9.85;;;-0.30;85.60;;;;;;5089526;28;20028;-43
2024/01/09 12:02:21;;;;;;;18.10;9.52;;;-0.60;87.80;;;;;;5090339;28;20789;-43
2024/01/09 12:04:46;;;;;;;18.70;9.80;;;-1.00;89.00;;;;;;5087548;28;20469;-42
2024/01/09 12:07:12;;;;;;;17.52;8.65;;;-1.10;89.10;;;;;;5090152;28;20102;-43
2024/01/09 12:09:39;;;;;;;21.88;9.43;;;-1.20;90.40;;;;;;5090330;28;20038;-42
2024/01/09 12:12:08;;;;;;;19.50;8.57;;;-1.30;91.00;;;;;;5090328;28;20019;-44
2024/01/09 12:14:34;;;;;;;19.65;9.63;;;-1.60;92.00;;;;;;5091042;28;20032;-45
2024/01/09 12:17:00;;;;;;;16.85;8.77;;;-1.70;92.60;;;;;;5089334;28;20032;-42
2024/01/09 12:19:26;;;;;;;15.40;8.32;;;-1.80;93.00;;;;;;5091468;28;20038;-44
2024/01/09 12:21:52;;;;;;;16.98;9.43;;;-1.90;93.40;;;;;;5097564;28;20036;-44
2024/01/09 12:24:18;;;;;;;19.00;8.27;;;-2.00;94.40;;;;;;5097057;28;20020;-43
2024/01/09 12:26:44;;;;;;;22.60;9.85;;;-2.10;95.00;;;;;;5097292;28;20031;-44
2024/01/09 12:29:10;;;;;;;17.70;8.65;;;-2.10;94.90;;;;;;5093633;28;20031;-44
2024/01/09 12:31:37;;;;;;;15.23;8.15;;;-2.20;96.30;;;;;;5094721;28;20024;-42